M I D A S
Marine Information and Data Acquisition System
Tripno 1270 of the Zeeleeuw from 2007-05-09 11:15:16 to 2007-05-09 14:30:53
Back to CruiseResearch ActivitiesStationsMapUnderway DataData graphs

EquipmentUnitsComment
TimeDGPSUTC
LatitudeDGPSDM.mWGS84
LongitudeDGPSDM.mWGS84
HeadingGyrodeg 
SOGDGPSknotsSpeed over ground
COGDGPSdegCourse over ground
DepthEcho soundermeters200 kHz
Missing or incorrect values are displayed as -999
Navigation data collected by the RV Zeeleeuw from 2007-05-09 11:14:07 to 2007-05-09 14:40:04
Time Latitude Longitude Heading SOG COG Depth
2007-05-09 11:15:12 51°13.605 2°56.075 115.1 2.2 294 -999
2007-05-09 11:16:12 51°13.627 2°55.995 118.9 4.2 295 -999
2007-05-09 11:17:12 51°13.669 2°55.88 122.5 5.2 300 -999
2007-05-09 11:18:12 51°13.694 2°55.784 102.1 3 284 10.4
2007-05-09 11:19:12 51°13.698 2°55.738 74.8 0.3 319 -999
2007-05-09 11:20:12 51°13.716 2°55.746 20.8 2.5 4 11.4
2007-05-09 11:21:11 51°13.772 2°55.7 329.3 5.3 326 9.9
2007-05-09 11:22:12 51°13.869 2°55.615 337.1 7.4 334 9.8
2007-05-09 11:23:12 51°13.997 2°55.526 341.1 8.9 337 10.2
2007-05-09 11:24:12 51°14.134 2°55.426 337.6 9.1 334 10.7
2007-05-09 11:25:12 51°14.268 2°55.273 320 10.3 314 10.9
2007-05-09 11:26:12 51°14.381 2°55.037 308.2 11.8 303 10.3
2007-05-09 11:27:12 51°14.486 2°54.745 307.5 13.4 300 10.2
2007-05-09 11:28:12 51°14.597 2°54.437 306.5 13.6 295 9.7
2007-05-09 11:29:12 51°14.679 2°54.098 298.1 13.8 289 10.5
2007-05-09 11:30:12 51°14.72 2°53.742 280.1 13.7 273 9.9
2007-05-09 11:31:12 51°14.732 2°53.376 279.9 13.8 273 9.6
2007-05-09 11:32:12 51°14.749 2°53.014 281.1 13.8 273 8.6
2007-05-09 11:33:12 51°14.765 2°52.648 282.7 13.9 275 8.8
2007-05-09 11:34:12 51°14.776 2°52.276 278.9 14.1 273 9.1
2007-05-09 11:35:12 51°14.791 2°51.901 280.7 14.3 273 9.5
2007-05-09 11:36:12 51°14.807 2°51.524 281.8 14.3 274 10
2007-05-09 11:37:11 51°14.822 2°51.153 280.3 14.2 274 10.5
2007-05-09 11:38:12 51°14.839 2°50.77 281.4 14.3 274 11.1
2007-05-09 11:39:11 51°14.857 2°50.399 281.2 14.3 273 11.6
2007-05-09 11:40:12 51°14.841 2°50.019 268.1 14 262 11.8
2007-05-09 11:41:12 51°14.816 2°49.667 270.1 13.8 264 11.9
2007-05-09 11:42:12 51°14.793 2°49.291 270.8 14.4 265 11.9
2007-05-09 11:43:12 51°14.774 2°48.912 271.7 14.4 266 11.9
2007-05-09 11:44:12 51°14.754 2°48.531 270.9 14.4 265 11.7
2007-05-09 11:45:12 51°14.735 2°48.152 270.7 14.3 265 11.1
2007-05-09 11:46:12 51°14.718 2°47.774 270.8 14.3 266 11.2
2007-05-09 11:47:12 51°14.701 2°47.396 271.1 14.3 266 12
2007-05-09 11:48:12 51°14.683 2°47.018 270.9 14.3 266 12.3
2007-05-09 11:49:12 51°14.665 2°46.64 271.1 14.3 267 11.9
2007-05-09 11:50:12 51°14.647 2°46.266 271 14 265 9.7
2007-05-09 11:51:12 51°14.63 2°45.904 272.1 13.5 267 8.3
2007-05-09 11:52:12 51°14.615 2°45.543 269.8 13.9 265 8.3
2007-05-09 11:53:12 51°14.576 2°45.174 262.7 14.2 257 10.2
2007-05-09 11:54:12 51°14.527 2°44.808 262.8 14.2 257 11.5
2007-05-09 11:55:11 51°14.463 2°44.454 258 14.2 253 12.8
2007-05-09 11:56:12 51°14.36 2°44.112 243.8 14.1 239 13.4
2007-05-09 11:57:11 51°14.238 2°43.797 239.6 14 234 13.7
2007-05-09 11:58:12 51°14.097 2°43.488 237.6 14.2 234 13.8
2007-05-09 11:59:12 51°13.959 2°43.182 238 14.3 234 13.6
2007-05-09 12:00:12 51°13.822 2°42.873 237.8 14.3 235 13.4
2007-05-09 12:01:12 51°13.685 2°42.563 238 14.3 235 13.2
2007-05-09 12:02:12 51°13.548 2°42.254 237.3 14.3 235 13
2007-05-09 12:03:12 51°13.411 2°41.943 238.1 14.3 235 13
2007-05-09 12:04:12 51°13.275 2°41.631 237.7 14.3 235 13
2007-05-09 12:05:12 51°13.139 2°41.321 237.9 14.2 235 12.7
2007-05-09 12:06:12 51°13.003 2°41.012 238.4 14.2 235 12.7
2007-05-09 12:07:12 51°12.868 2°40.704 238.5 14.1 235 12.1
2007-05-09 12:08:12 51°12.735 2°40.395 238.7 14.1 235 12
2007-05-09 12:09:11 51°12.602 2°40.095 238.4 14.2 235 11.9
2007-05-09 12:10:11 51°12.469 2°39.786 238.2 14.2 234 11.7
2007-05-09 12:11:11 51°12.334 2°39.477 238.2 14.3 234 11.7
2007-05-09 12:12:11 51°12.2 2°39.168 238.1 14.1 234 12
2007-05-09 12:13:11 51°12.065 2°38.859 238.1 14.2 235 11.9
2007-05-09 12:14:11 51°11.929 2°38.55 238.3 14.3 235 12.2
2007-05-09 12:15:11 51°11.795 2°38.239 238.3 14.2 235 12.5
2007-05-09 12:16:11 51°11.66 2°37.93 238 14.2 236 13.3
2007-05-09 12:17:11 51°11.516 2°37.632 233.9 14.2 232 13.2
2007-05-09 12:18:11 51°11.359 2°37.349 231.3 14.2 229 12.9
2007-05-09 12:19:11 51°11.182 2°37.1 217.8 14.2 215 12.4
2007-05-09 12:20:11 51°10.989 2°36.889 215.6 14.1 214 11.7
2007-05-09 12:21:11 51°10.79 2°36.689 213.3 14 209 10.6
2007-05-09 12:22:11 51°10.577 2°36.552 196 13.8 194 9.2
2007-05-09 12:23:11 51°10.349 2°36.521 182.7 14.3 182 11.4
2007-05-09 12:24:11 51°10.116 2°36.509 177.9 13.6 180 17.5
2007-05-09 12:25:11 51°9.888 2°36.509 175.5 13.6 177 17.2
2007-05-09 12:26:11 51°9.662 2°36.531 173.9 13.6 176 16.7
2007-05-09 12:27:11 51°9.436 2°36.551 174.2 13.7 177 15.1
2007-05-09 12:28:11 51°9.216 2°36.585 166.9 11.5 166 13.8
2007-05-09 12:29:11 51°9.098 2°36.675 132 5.1 131 11.3
2007-05-09 12:30:11 51°9.093 2°36.771 65.7 4.3 62 10.6
2007-05-09 12:31:11 51°9.121 2°36.904 77.4 5.9 79 10.6
2007-05-09 12:32:11 51°9.142 2°37.059 77.5 5.4 78 10.4
2007-05-09 12:33:11 51°9.151 2°37.17 85.7 2.3 90 10.4
2007-05-09 12:34:11 51°9.148 2°37.188 79.8 0.5 118 10.2
2007-05-09 12:35:11 51°9.144 2°37.199 71.1 0.5 115 10.2
2007-05-09 12:36:11 51°9.141 2°37.209 65.1 0.4 107 10.2
2007-05-09 12:37:11 51°9.139 2°37.216 58.7 0.2 96 10.2
2007-05-09 12:38:12 51°9.139 2°37.221 52.9 0.1 91 10.2
2007-05-09 12:39:11 51°9.139 2°37.224 45.5 0.1 113 10.2
2007-05-09 12:40:11 51°9.138 2°37.224 38.7 0.1 230 10.2
2007-05-09 12:41:11 51°9.139 2°37.225 33.9 0.3 35 10.2
2007-05-09 12:42:11 51°9.15 2°37.257 72 2.2 83 10.2
2007-05-09 12:43:11 51°9.129 2°37.316 132.4 3.1 148 10
2007-05-09 12:44:11 51°9.069 2°37.323 187.1 4.2 191 9.6
2007-05-09 12:45:11 51°9.011 2°37.271 225.9 3.7 226 9.3
2007-05-09 12:46:11 51°8.982 2°37.193 254.2 3.4 247 9.2
2007-05-09 12:47:11 51°8.97 2°37.108 272.9 3.2 265 9.2
2007-05-09 12:48:11 51°8.971 2°37.025 283.7 3 272 9.2
2007-05-09 12:49:11 51°8.963 2°36.945 259.8 3.2 251 9.2
2007-05-09 12:50:11 51°8.94 2°36.866 249.7 3.4 244 9
2007-05-09 12:51:11 51°8.917 2°36.784 254.7 3.4 248 8.8
2007-05-09 12:52:11 51°8.896 2°36.698 256.5 3.5 250 8.8
2007-05-09 12:53:11 51°8.874 2°36.612 253.8 3.5 247 8.6
2007-05-09 12:54:11 51°8.853 2°36.526 259.2 3.4 253 8.6
2007-05-09 12:55:11 51°8.843 2°36.437 272.5 3.4 265 8.4
2007-05-09 12:56:11 51°8.841 2°36.347 279.7 3.4 270 8.8
2007-05-09 12:57:11 51°8.841 2°36.258 277.9 3.4 267 8.9
2007-05-09 12:58:11 51°8.836 2°36.169 268.5 3.4 261 9.2
2007-05-09 12:59:11 51°8.823 2°36.081 260.9 3.4 253 9.3
2007-05-09 13:00:11 51°8.803 2°35.995 253.1 3.4 248 9.4
2007-05-09 13:01:11 51°8.781 2°35.911 255.2 3.5 248 9.3
2007-05-09 13:02:11 51°8.76 2°35.826 258.1 3.3 251 9.4
2007-05-09 13:03:11 51°8.742 2°35.741 260.5 3.4 253 9.6
2007-05-09 13:04:11 51°8.724 2°35.655 258.3 3.4 250 9.8
2007-05-09 13:05:11 51°8.702 2°35.571 251.4 3.5 244 9.8
2007-05-09 13:06:11 51°8.673 2°35.491 242.6 3.5 235 9.7
2007-05-09 13:07:11 51°8.637 2°35.419 233.9 3.5 232 9.4
2007-05-09 13:08:11 51°8.597 2°35.356 229.8 3.4 226 9
2007-05-09 13:09:11 51°8.56 2°35.291 237.6 3.3 232 8.7
2007-05-09 13:10:11 51°8.532 2°35.219 252.9 3.1 245 8.6
2007-05-09 13:11:11 51°8.517 2°35.142 265.6 3.1 254 8.8
2007-05-09 13:12:11 51°8.499 2°35.064 254 3.2 247 9
2007-05-09 13:13:11 51°8.484 2°34.987 272.8 3 263 9.1
2007-05-09 13:14:11 51°8.488 2°34.91 296.1 2.9 285 9.7
2007-05-09 13:15:11 51°8.505 2°34.842 304.7 2.8 296 10.4
2007-05-09 13:16:11 51°8.527 2°34.779 315.6 2.5 307 11.7
2007-05-09 13:17:11 51°8.558 2°34.752 6.4 2 359 13.3
2007-05-09 13:18:11 51°8.582 2°34.76 25.9 1.2 14 14.2
2007-05-09 13:19:11 51°8.608 2°34.771 24.3 2.5 19 14.9
2007-05-09 13:20:11 51°8.686 2°34.858 38.2 9.1 28 15.7
2007-05-09 13:21:11 51°8.859 2°34.96 24.5 12.5 19 16.6
2007-05-09 13:22:11 51°9.056 2°35.07 26.3 12.6 20 17
2007-05-09 13:23:11 51°9.253 2°35.186 26.6 12.6 21 16.8
2007-05-09 13:24:11 51°9.448 2°35.304 27.2 12.6 20 17.5
2007-05-09 13:25:11 51°9.643 2°35.426 27.6 12.6 20 18.6
2007-05-09 13:26:11 51°9.84 2°35.55 27.9 12.7 22 18.8
2007-05-09 13:27:11 51°10.035 2°35.68 28.7 12.6 25 16.1
2007-05-09 13:28:11 51°10.226 2°35.812 28.2 12.5 24 11
2007-05-09 13:29:11 51°10.414 2°35.951 31.4 12.4 32 11.3
2007-05-09 13:30:11 51°10.572 2°36.163 45.7 12.6 42 11.2
2007-05-09 13:31:11 51°10.731 2°36.377 43.4 12.5 41 11.5
2007-05-09 13:32:11 51°10.886 2°36.6 49.1 12.5 48 12.2
2007-05-09 13:33:11 51°11.019 2°36.857 53.3 12.6 50 12.4
2007-05-09 13:34:11 51°11.152 2°37.112 53.2 12.5 49 12.9
2007-05-09 13:35:11 51°11.285 2°37.368 53.1 12.6 50 13.4
2007-05-09 13:36:11 51°11.404 2°37.643 60.7 12.6 59 13.3
2007-05-09 13:37:11 51°11.511 2°37.932 61.6 12.6 58 12.6
2007-05-09 13:38:11 51°11.618 2°38.221 61.8 12.7 59 11.7
2007-05-09 13:39:11 51°11.726 2°38.51 62.4 12.7 59 11.4
2007-05-09 13:40:11 51°11.834 2°38.799 62 12.7 59 11.4
2007-05-09 13:41:11 51°11.939 2°39.092 63.8 12.8 62 11.4
2007-05-09 13:42:11 51°12.041 2°39.388 63.8 12.7 61 11.4
2007-05-09 13:43:11 51°12.144 2°39.683 63.7 12.7 62 11
2007-05-09 13:44:11 51°12.247 2°39.976 62.6 12.7 60 11.6
2007-05-09 13:45:11 51°12.349 2°40.27 63.6 12.7 62 11.2
2007-05-09 13:46:11 51°12.451 2°40.565 63.1 12.7 62 11.9
2007-05-09 13:47:11 51°12.554 2°40.859 63.4 12.7 60 12
2007-05-09 13:48:11 51°12.657 2°41.154 63.5 12.8 61 11.7
2007-05-09 13:49:11 51°12.76 2°41.45 62.7 12.7 62 11.6
2007-05-09 13:50:11 51°12.862 2°41.748 63.5 12.8 61 11.6
2007-05-09 13:51:11 51°12.955 2°42.054 70.4 12.9 67 11.4
2007-05-09 13:52:11 51°13.037 2°42.371 69 13 65 11.1
2007-05-09 13:53:11 51°13.131 2°42.679 67.2 13.1 64 10.8
2007-05-09 13:54:11 51°13.227 2°42.989 66.8 13 64 10.4
2007-05-09 13:55:11 51°13.324 2°43.297 65.8 13 64 9.9
2007-05-09 13:56:11 51°13.42 2°43.604 66.7 12.9 63 9.4
2007-05-09 13:57:11 51°13.515 2°43.911 66 13 64 9.6
2007-05-09 13:58:11 51°13.611 2°44.22 67.3 13.1 64 10.7
2007-05-09 13:59:11 51°13.708 2°44.524 66.6 12.8 64 11.5
2007-05-09 14:00:11 51°13.806 2°44.826 66.3 12.8 63 12.3
2007-05-09 14:01:11 51°13.902 2°45.128 65.8 12.8 63 12.6
2007-05-09 14:02:11 51°13.999 2°45.428 65.7 12.7 62 12.6
2007-05-09 14:03:11 51°14.096 2°45.731 67.5 12.9 64 12.9
2007-05-09 14:04:11 51°14.172 2°46.049 76.6 12.9 76 12.6
2007-05-09 14:05:11 51°14.202 2°46.386 85.9 12.9 82 11.4
2007-05-09 14:06:11 51°14.234 2°46.723 86.9 12.8 84 10.5
2007-05-09 14:07:11 51°14.255 2°47.06 86.6 12.8 83 9.7
2007-05-09 14:08:11 51°14.277 2°47.4 86.9 12.9 84 10.4
2007-05-09 14:09:11 51°14.3 2°47.738 86.2 12.8 83 11.8
2007-05-09 14:10:11 51°14.327 2°48.074 84.8 12.7 83 12.4
2007-05-09 14:11:11 51°14.354 2°48.41 84.4 12.7 82 12.6
2007-05-09 14:12:11 51°14.38 2°48.746 84.9 12.8 83 12.6
2007-05-09 14:13:11 51°14.407 2°49.083 85.4 12.8 82 12.6
2007-05-09 14:14:11 51°14.435 2°49.42 85.2 12.8 82 12.7
2007-05-09 14:15:11 51°14.462 2°49.758 85 12.8 82 12.6
2007-05-09 14:16:11 51°14.49 2°50.098 85.3 12.9 82 12.3
2007-05-09 14:17:11 51°14.519 2°50.439 85.4 12.9 82 11.9
2007-05-09 14:18:11 51°14.54 2°50.781 87.7 13 84 11.4
2007-05-09 14:19:11 51°14.56 2°51.124 87.3 13 84 11.2
2007-05-09 14:20:11 51°14.581 2°51.468 86.7 13 85 10.8
2007-05-09 14:21:11 51°14.601 2°51.812 86.7 13 84 10.7
2007-05-09 14:22:11 51°14.621 2°52.157 87.6 13 84 10.6
2007-05-09 14:23:11 51°14.642 2°52.502 87 13.1 86 10.4
2007-05-09 14:24:11 51°14.649 2°52.847 90.7 13.1 88 10.1
2007-05-09 14:25:11 51°14.659 2°53.194 90.9 13.1 88 9.9
2007-05-09 14:26:11 51°14.67 2°53.539 89.7 13.1 88 9.9
2007-05-09 14:27:11 51°14.642 2°53.884 104.5 13.2 102 12.2
2007-05-09 14:28:11 51°14.603 2°54.226 105.3 13.1 104 12.3
2007-05-09 14:29:11 51°14.524 2°54.551 119.9 13.3 115 11.9
2007-05-09 14:30:11 51°14.424 2°54.863 121.5 13.3 116 12.2
2007-05-09 14:31:11 51°14.31 2°55.16 130.1 12.9 127 12.5
2007-05-09 14:32:11 51°14.167 2°55.382 147.3 10.8 148 12.5
2007-05-09 14:33:11 51°14.024 2°55.492 159.1 9.1 156 12.1
2007-05-09 14:34:11 51°13.895 2°55.586 159 8.4 156 11.7
2007-05-09 14:35:11 51°13.77 2°55.687 152.6 8.1 147 11.8
2007-05-09 14:36:11 51°13.703 2°55.802 126.2 4.8 123 12.5
2007-05-09 14:37:11 51°13.662 2°55.894 128.3 3.9 125 10.8
2007-05-09 14:38:11 51°13.629 2°55.972 118.8 3.2 117 11
2007-05-09 14:39:11 51°13.615 2°56.043 107.2 2.3 101 -999